Time;durP1;ratioP1;P1;durP2;ratioP2;P2;SDS_P1;SDS_P2;PMS_P1;PMS_P2;Temp;Humidity;BMP_temperature;BMP_pressure;BME280_temperature;BME280_humidity;BME280_pressure;Samples;Min_cycle;Max_cycle;Signal;HPM_P1;HPM_P2
2022/11/25 00:00:34;;;;;;;5.53;1.63;;;9.60;99.90;;;;;;5036691;28;20215;-55
2022/11/25 00:03:02;;;;;;;7.30;2.07;;;9.60;99.90;;;;;;5037144;28;20211;-56
2022/11/25 00:05:29;;;;;;;13.63;3.27;;;9.60;99.90;;;;;;5037616;28;20203;-58
2022/11/25 00:07:56;;;;;;;9.97;2.57;;;9.60;99.90;;;;;;5037710;28;20200;-56
2022/11/25 00:10:22;;;;;;;11.07;2.10;;;9.70;99.90;;;;;;5037049;28;20584;-54
2022/11/25 00:12:49;;;;;;;8.60;1.73;;;9.60;99.90;;;;;;5037198;28;20243;-56
2022/11/25 00:15:16;;;;;;;7.50;1.90;;;9.70;99.90;;;;;;5037795;28;20664;-61
2022/11/25 00:17:43;;;;;;;8.77;1.70;;;9.70;99.90;;;;;;5036828;28;20226;-56
2022/11/25 00:20:10;;;;;;;13.60;1.90;;;9.60;99.90;;;;;;5036401;28;20209;-56
2022/11/25 00:22:37;;;;;;;8.73;2.27;;;9.70;99.90;;;;;;5037765;28;20679;-56
2022/11/25 00:25:04;;;;;;;10.50;2.67;;;9.60;99.90;;;;;;5036117;28;20669;-56
2022/11/25 00:27:31;;;;;;;10.23;2.30;;;9.60;99.90;;;;;;5038136;28;20232;-56
2022/11/25 00:29:58;;;;;;;7.73;1.93;;;9.70;99.90;;;;;;5032413;28;20198;-56
2022/11/25 00:32:25;;;;;;;7.77;2.43;;;9.70;99.90;;;;;;5039186;28;20302;-56
2022/11/25 00:34:51;;;;;;;9.00;2.10;;;9.80;99.90;;;;;;5038796;28;20574;-56
2022/11/25 00:37:18;;;;;;;10.47;2.53;;;9.80;99.90;;;;;;5040618;28;20228;-56
2022/11/25 00:39:45;;;;;;;9.97;2.00;;;9.80;99.90;;;;;;5039378;28;20924;-56
2022/11/25 00:44:57;;;;;;;9.17;1.90;;;9.80;99.90;;;;;;5039479;28;20574;-56
2022/11/25 00:47:24;;;;;;;7.77;2.00;;;9.70;99.90;;;;;;5038815;28;20683;-55
2022/11/25 00:49:53;;;;;;;7.33;1.63;;;9.80;99.90;;;;;;5037337;28;20207;-56
2022/11/25 00:52:23;;;;;;;8.43;2.00;;;9.80;99.90;;;;;;5038522;28;20644;-57
2022/11/25 00:54:51;;;;;;;11.53;2.73;;;9.90;99.90;;;;;;5038174;28;20218;-57
2022/11/25 00:57:21;;;;;;;5.47;2.17;;;9.90;99.90;;;;;;5038773;28;20274;-56
2022/11/25 00:59:48;;;;;;;5.97;2.07;;;9.90;99.90;;;;;;5037975;28;20222;-55
2022/11/25 01:02:16;;;;;;;10.53;2.20;;;9.90;99.90;;;;;;5037151;28;20278;-56
2022/11/25 01:04:44;;;;;;;10.90;2.27;;;9.90;99.90;;;;;;5036781;28;20206;-56
2022/11/25 01:07:11;;;;;;;6.73;2.00;;;9.90;99.90;;;;;;5052116;28;20683;-56
2022/11/25 01:09:38;;;;;;;10.87;2.47;;;9.90;99.90;;;;;;5038139;28;20218;-57
2022/11/25 01:12:05;;;;;;;9.60;1.90;;;9.90;99.90;;;;;;5038681;28;20226;-56
2022/11/25 01:14:32;;;;;;;11.97;2.33;;;10.00;99.90;;;;;;5038473;28;20774;-57
2022/11/25 01:17:00;;;;;;;10.70;1.87;;;9.90;99.90;;;;;;5038722;28;20674;-56
2022/11/25 01:19:27;;;;;;;8.87;1.77;;;9.90;99.90;;;;;;5038172;28;20232;-56
2022/11/25 01:21:54;;;;;;;8.83;1.80;;;9.90;99.90;;;;;;5033929;28;20225;-64
2022/11/25 01:24:20;;;;;;;10.60;2.00;;;10.00;99.90;;;;;;5037269;28;20597;-56
2022/11/25 01:26:49;;;;;;;10.03;1.90;;;10.10;99.90;;;;;;5038155;28;20247;-58
2022/11/25 01:29:18;;;;;;;5.80;1.83;;;10.10;99.90;;;;;;5038358;28;20706;-56
2022/11/25 01:31:45;;;;;;;5.27;1.50;;;10.10;99.90;;;;;;5038666;28;20676;-56
2022/11/25 01:34:16;;;;;;;6.90;1.60;;;10.00;99.90;;;;;;5036733;28;20226;-57
2022/11/25 01:36:43;;;;;;;11.77;2.00;;;10.10;99.90;;;;;;5037159;28;20211;-55
2022/11/25 01:39:21;;;;;;;7.57;2.57;;;10.00;99.90;;;;;;5032006;28;20243;-56
2022/11/25 01:41:57;;;;;;;7.17;1.87;;;10.10;99.90;;;;;;5038753;28;20253;-55
2022/11/25 01:44:28;;;;;;;11.33;2.23;;;10.20;99.90;;;;;;5040764;28;20201;-56
2022/11/25 01:46:55;;;;;;;7.93;1.93;;;10.20;99.90;;;;;;5041613;28;20287;-57
2022/11/25 01:49:34;;;;;;;8.93;2.17;;;10.20;99.90;;;;;;5040109;28;20205;-56
2022/11/25 01:52:26;;;;;;;8.53;3.30;;;10.10;99.90;;;;;;5042005;28;20261;-57
2022/11/25 01:54:54;;;;;;;11.67;2.53;;;10.20;99.90;;;;;;5041761;28;20295;-57
2022/11/25 01:57:27;;;;;;;7.77;2.50;;;10.10;99.90;;;;;;5041347;28;20223;-57
2022/11/25 01:59:58;;;;;;;8.53;1.80;;;10.10;99.90;;;;;;5041315;28;20547;-56
2022/11/25 02:02:27;;;;;;;8.37;2.20;;;10.10;99.90;;;;;;5039710;28;20756;-57
2022/11/25 02:04:55;;;;;;;6.90;1.90;;;10.10;99.90;;;;;;5041276;28;20218;-56
2022/11/25 02:07:43;;;;;;;14.67;2.50;;;10.00;99.90;;;;;;5038126;28;20206;-57
2022/11/25 02:10:15;;;;;;;10.20;2.50;;;10.00;99.90;;;;;;5041327;28;20232;-56
2022/11/25 02:12:45;;;;;;;7.63;2.27;;;10.00;99.90;;;;;;5041480;28;20262;-57
2022/11/25 02:15:14;;;;;;;4.70;1.80;;;10.00;99.90;;;;;;5041611;28;20207;-56
2022/11/25 02:17:42;;;;;;;9.97;2.30;;;9.90;99.90;;;;;;5041855;28;20225;-57
2022/11/25 02:20:12;;;;;;;10.77;2.20;;;9.90;99.90;;;;;;5056711;28;20207;-56
2022/11/25 02:22:58;;;;;;;6.33;1.70;;;9.90;99.90;;;;;;5042119;28;20627;-57
2022/11/25 02:25:39;;;;;;;9.53;2.37;;;9.90;99.90;;;;;;5039654;28;20238;-57
2022/11/25 02:28:20;;;;;;;10.50;2.53;;;9.80;99.90;;;;;;5037102;28;21070;-57
2022/11/25 02:30:47;;;;;;;7.67;1.70;;;9.80;99.90;;;;;;5040765;28;20269;-56
2022/11/25 02:33:15;;;;;;;6.83;1.67;;;9.80;99.90;;;;;;5056988;28;20581;-56
2022/11/25 02:35:52;;;;;;;6.23;1.87;;;9.70;99.90;;;;;;5039503;28;20714;-56
2022/11/25 02:38:28;;;;;;;8.30;2.37;;;9.70;99.90;;;;;;5041446;28;20957;-57
2022/11/25 02:41:10;;;;;;;11.40;1.50;;;9.70;99.90;;;;;;5040281;28;20269;-57
2022/11/25 02:43:38;;;;;;;12.90;1.87;;;9.70;99.90;;;;;;5039222;28;20212;-57
2022/11/25 02:46:08;;;;;;;6.17;2.07;;;9.70;99.90;;;;;;5041412;28;20835;-57
2022/11/25 02:48:37;;;;;;;8.53;1.73;;;9.60;99.90;;;;;;5039492;28;20211;-57
2022/11/25 02:51:27;;;;;;;12.07;1.87;;;9.60;99.90;;;;;;5039657;28;20216;-57
2022/11/25 02:53:58;;;;;;;6.60;1.80;;;9.60;99.90;;;;;;5039956;28;20295;-57
2022/11/25 02:56:28;;;;;;;4.47;1.57;;;9.60;99.90;;;;;;5039427;28;20617;-57
2022/11/25 02:58:55;;;;;;;6.20;1.57;;;9.50;99.90;;;;;;5040424;28;20553;-56
2022/11/25 03:01:22;;;;;;;6.63;1.50;;;9.60;99.90;;;;;;5041171;28;20219;-57
2022/11/25 03:03:49;;;;;;;5.17;1.70;;;9.70;99.90;;;;;;5035749;28;20244;-56
2022/11/25 03:06:16;;;;;;;5.77;1.60;;;9.70;99.90;;;;;;5033937;28;20207;-56
2022/11/25 03:08:43;;;;;;;8.87;1.50;;;9.60;99.90;;;;;;5022313;28;20257;-56
2022/11/25 03:11:10;;;;;;;5.43;1.17;;;9.60;99.90;;;;;;5041237;28;20665;-57
2022/11/25 03:13:37;;;;;;;5.43;1.30;;;9.80;99.90;;;;;;5040727;28;20354;-57
2022/11/25 03:16:04;;;;;;;5.13;1.30;;;9.70;99.90;;;;;;5040019;28;20294;-57
2022/11/25 03:18:31;;;;;;;7.43;1.63;;;9.60;99.90;;;;;;5039731;28;20215;-57
2022/11/25 03:20:58;;;;;;;3.60;1.60;;;9.60;99.90;;;;;;5040032;28;20262;-57
2022/11/25 03:23:25;;;;;;;4.63;1.23;;;9.50;99.90;;;;;;5023223;28;20232;-57
2022/11/25 03:25:53;;;;;;;4.93;1.53;;;9.50;99.90;;;;;;5040411;28;20208;-57
2022/11/25 03:28:20;;;;;;;3.47;1.43;;;9.50;99.90;;;;;;5040959;28;20643;-56
2022/11/25 03:30:46;;;;;;;7.07;1.50;;;9.60;99.90;;;;;;5039174;28;20343;-57
2022/11/25 03:33:13;;;;;;;5.70;1.37;;;9.60;99.90;;;;;;5022229;28;20236;-57
2022/11/25 03:35:40;;;;;;;6.50;1.67;;;9.60;99.90;;;;;;5039727;28;20567;-56
2022/11/25 03:38:07;;;;;;;7.13;1.93;;;9.60;99.90;;;;;;5040783;28;20223;-56
2022/11/25 03:40:34;;;;;;;3.70;1.23;;;9.50;99.90;;;;;;5039890;28;20661;-57
2022/11/25 03:43:01;;;;;;;4.03;1.27;;;9.40;99.90;;;;;;5039159;28;20199;-56
2022/11/25 03:45:28;;;;;;;6.97;1.50;;;9.40;99.90;;;;;;5034353;28;20242;-56
2022/11/25 03:47:55;;;;;;;8.70;1.40;;;9.40;99.90;;;;;;5036966;28;20748;-56
2022/11/25 03:50:21;;;;;;;8.63;1.30;;;9.40;99.90;;;;;;5039107;28;20207;-57
2022/11/25 03:52:48;;;;;;;5.47;1.30;;;9.40;99.90;;;;;;5037975;28;20258;-57
2022/11/25 03:55:15;;;;;;;8.33;1.67;;;9.50;99.90;;;;;;5039656;28;20219;-56
2022/11/25 03:57:42;;;;;;;4.53;1.83;;;9.60;99.90;;;;;;5039294;28;20315;-61
2022/11/25 04:00:10;;;;;;;4.07;1.60;;;9.50;99.90;;;;;;5039490;28;20290;-57
2022/11/25 04:02:37;;;;;;;2.50;1.10;;;9.60;99.90;;;;;;5039088;28;20197;-55
2022/11/25 04:05:04;;;;;;;9.27;1.60;;;9.40;99.90;;;;;;5019279;28;20204;-56
2022/11/25 04:07:31;;;;;;;2.50;1.03;;;9.40;99.90;;;;;;5037402;28;20265;-57
2022/11/25 04:09:58;;;;;;;4.70;1.27;;;9.40;99.90;;;;;;5038049;28;20232;-57
2022/11/25 04:15:10;;;;;;;4.20;1.33;;;9.30;99.90;;;;;;5038603;28;20239;-56
2022/11/25 04:17:37;;;;;;;2.50;0.90;;;9.30;99.90;;;;;;5039425;28;20269;-56
2022/11/25 04:20:04;;;;;;;7.67;1.53;;;9.30;99.90;;;;;;5038553;28;20676;-57
2022/11/25 04:22:31;;;;;;;3.47;1.00;;;9.30;99.90;;;;;;5038969;28;20203;-57
2022/11/25 04:24:58;;;;;;;7.43;1.03;;;9.30;99.90;;;;;;5038261;28;20208;-62
2022/11/25 04:27:25;;;;;;;5.73;1.20;;;9.30;99.90;;;;;;5038691;28;20290;-56
2022/11/25 04:29:52;;;;;;;3.63;1.27;;;9.20;99.90;;;;;;5038631;28;20223;-57
2022/11/25 04:32:18;;;;;;;3.03;0.73;;;9.20;99.90;;;;;;5039540;28;20210;-56
2022/11/25 04:34:45;;;;;;;3.80;0.90;;;9.30;99.90;;;;;;5038381;28;20224;-56
2022/11/25 04:37:12;;;;;;;5.43;1.03;;;9.20;99.90;;;;;;5039639;28;20696;-57
2022/11/25 04:39:39;;;;;;;2.80;1.00;;;9.20;99.90;;;;;;5039188;28;20230;-57
2022/11/25 04:44:52;;;;;;;4.40;1.40;;;9.10;99.90;;;;;;5039159;28;20203;-61
2022/11/25 04:47:39;;;;;;;1.00;0.60;;;9.10;99.90;;;;;;5023773;28;20236;-58
2022/11/25 04:50:09;;;;;;;3.30;0.63;;;9.10;99.90;;;;;;5039081;28;20319;-56
2022/11/25 04:52:35;;;;;;;3.43;0.80;;;9.10;99.90;;;;;;5041110;28;20203;-57
2022/11/25 04:55:02;;;;;;;4.00;0.80;;;9.10;99.90;;;;;;5040162;28;20204;-55
2022/11/25 04:57:29;;;;;;;1.57;0.60;;;9.00;99.90;;;;;;5040227;28;20671;-56
2022/11/25 04:59:56;;;;;;;1.07;0.60;;;8.90;99.90;;;;;;5039637;28;20750;-56
2022/11/25 05:02:25;;;;;;;2.47;0.57;;;8.90;99.90;;;;;;5038972;28;20219;-56
2022/11/25 05:04:54;;;;;;;2.67;0.60;;;8.80;99.90;;;;;;5038385;28;20626;-56
2022/11/25 05:07:24;;;;;;;3.00;0.90;;;8.80;99.90;;;;;;5038856;28;20213;-56
2022/11/25 05:09:51;;;;;;;1.73;0.77;;;8.80;99.90;;;;;;5038661;28;20727;-56
2022/11/25 05:12:24;;;;;;;1.40;0.47;;;8.80;99.90;;;;;;5039827;28;20276;-56
2022/11/25 05:14:51;;;;;;;2.03;0.57;;;8.80;99.90;;;;;;5038606;28;20328;-56
2022/11/25 05:17:21;;;;;;;6.20;0.60;;;8.70;99.90;;;;;;5038939;28;20239;-56
2022/11/25 05:19:49;;;;;;;1.23;0.60;;;8.70;99.90;;;;;;5040300;28;20221;-56
2022/11/25 05:22:18;;;;;;;3.80;0.90;;;8.70;99.90;;;;;;5023798;28;20715;-56
2022/11/25 05:24:45;;;;;;;1.43;0.77;;;8.70;99.90;;;;;;5040692;28;20653;-56
2022/11/25 05:27:12;;;;;;;6.97;0.80;;;8.70;99.90;;;;;;5041213;28;20322;-57
2022/11/25 05:29:39;;;;;;;1.57;0.70;;;8.70;99.90;;;;;;5037797;28;20286;-56
2022/11/25 05:32:06;;;;;;;1.57;0.70;;;8.70;99.90;;;;;;5041466;28;20256;-57
2022/11/25 05:34:34;;;;;;;1.07;0.70;;;8.70;99.90;;;;;;5041927;28;20662;-57
2022/11/25 05:37:01;;;;;;;1.83;0.73;;;8.70;99.90;;;;;;5042260;28;20201;-56
2022/11/25 05:39:28;;;;;;;2.20;0.80;;;8.60;99.90;;;;;;5042327;28;20256;-56
2022/11/25 05:41:55;;;;;;;2.07;0.70;;;8.50;99.90;;;;;;5042899;28;20208;-57
2022/11/25 05:44:22;;;;;;;5.67;1.30;;;8.50;99.90;;;;;;5056976;28;20201;-57
2022/11/25 05:46:49;;;;;;;2.73;0.80;;;8.50;99.90;;;;;;5040960;28;20296;-57
2022/11/25 05:49:16;;;;;;;3.27;1.00;;;8.60;99.90;;;;;;5042014;28;20327;-57
2022/11/25 05:51:44;;;;;;;1.77;0.80;;;8.50;99.90;;;;;;5043335;28;20222;-57
2022/11/25 05:54:11;;;;;;;2.23;1.20;;;8.50;99.90;;;;;;5041544;28;20211;-57
2022/11/25 05:56:38;;;;;;;3.23;1.00;;;8.50;99.90;;;;;;5043613;28;20434;-56
2022/11/25 05:59:05;;;;;;;1.80;0.83;;;8.50;99.90;;;;;;5041284;28;20214;-57
2022/11/25 06:01:32;;;;;;;4.83;1.07;;;8.50;99.90;;;;;;5042272;28;20211;-56
2022/11/25 06:04:04;;;;;;;2.07;0.80;;;8.50;99.90;;;;;;5042166;28;20808;-54
2022/11/25 06:06:31;;;;;;;2.63;1.17;;;8.50;99.90;;;;;;5042110;28;20284;-57
2022/11/25 06:08:58;;;;;;;2.47;0.80;;;8.60;99.90;;;;;;5042093;28;20206;-56
2022/11/25 06:11:25;;;;;;;1.97;0.80;;;8.60;99.90;;;;;;5041788;28;20233;-56
2022/11/25 06:13:54;;;;;;;4.07;1.00;;;8.50;99.90;;;;;;5038596;28;20232;-56
2022/11/25 06:16:22;;;;;;;4.17;1.10;;;8.50;99.90;;;;;;5041601;28;20212;-56
2022/11/25 06:18:49;;;;;;;2.20;0.80;;;8.60;99.90;;;;;;5042019;28;20220;-57
2022/11/25 06:21:16;;;;;;;4.70;1.37;;;8.50;99.90;;;;;;5055602;28;20250;-57
2022/11/25 06:23:46;;;;;;;2.17;1.13;;;8.50;99.90;;;;;;5037771;28;20691;-62
2022/11/25 06:26:18;;;;;;;2.13;1.20;;;8.40;99.90;;;;;;5040694;28;20300;-61
2022/11/25 06:28:45;;;;;;;1.60;0.77;;;8.40;99.90;;;;;;5042050;28;20204;-57
2022/11/25 06:31:15;;;;;;;5.67;1.07;;;8.50;99.90;;;;;;5037754;28;20204;-56
2022/11/25 06:33:45;;;;;;;2.67;0.97;;;8.40;99.90;;;;;;5039994;28;20579;-57
2022/11/25 06:36:15;;;;;;;3.20;0.97;;;8.40;99.90;;;;;;5038536;28;20210;-57
2022/11/25 06:38:44;;;;;;;2.90;1.10;;;8.40;99.90;;;;;;5040954;28;20251;-58
2022/11/25 06:41:11;;;;;;;4.77;1.03;;;8.40;99.90;;;;;;5036294;28;20579;-60
2022/11/25 06:43:38;;;;;;;1.93;0.80;;;8.40;99.90;;;;;;5041560;28;20233;-62
2022/11/25 06:46:07;;;;;;;4.27;1.17;;;8.30;99.90;;;;;;5056638;28;20208;-56
2022/11/25 06:48:35;;;;;;;2.13;1.17;;;8.30;99.90;;;;;;5040155;28;20231;-57
2022/11/25 06:51:05;;;;;;;6.90;1.00;;;8.30;99.90;;;;;;5039729;28;20217;-57
2022/11/25 06:53:33;;;;;;;3.67;0.97;;;8.40;99.90;;;;;;5041535;28;20204;-57
2022/11/25 06:56:04;;;;;;;7.67;1.57;;;8.40;99.90;;;;;;5038840;28;21089;-55
2022/11/25 06:58:31;;;;;;;3.37;1.20;;;8.40;99.90;;;;;;5039248;28;20220;-56
2022/11/25 07:01:11;;;;;;;5.40;1.30;;;8.40;99.90;;;;;;5031375;28;20286;-55
2022/11/25 07:03:38;;;;;;;7.80;1.90;;;8.40;99.90;;;;;;5038472;28;20295;-55
2022/11/25 07:06:10;;;;;;;3.10;1.30;;;8.50;99.90;;;;;;4674385;28;9999968;-55
2022/11/25 07:08:37;;;;;;;5.23;1.50;;;8.50;99.90;;;;;;5034653;28;20774;-56
2022/11/25 07:11:16;;;;;;;3.63;1.10;;;8.50;99.90;;;;;;5038459;28;20230;-55
2022/11/25 07:13:43;;;;;;;9.60;1.70;;;8.50;99.90;;;;;;5038984;28;20351;-57
2022/11/25 07:16:11;;;;;;;5.20;1.40;;;8.50;99.90;;;;;;5037529;28;20208;-56
2022/11/25 07:18:39;;;;;;;5.63;1.40;;;8.50;99.90;;;;;;5035458;28;20973;-55
2022/11/25 07:21:12;;;;;;;3.33;1.50;;;8.50;99.90;;;;;;5035714;28;20575;-54
2022/11/25 07:23:40;;;;;;;7.13;1.50;;;8.40;99.90;;;;;;5038062;28;20655;-55
2022/11/25 07:26:13;;;;;;;2.80;1.30;;;8.40;99.90;;;;;;5032629;28;20978;-55
2022/11/25 07:28:41;;;;;;;4.43;1.20;;;8.30;99.90;;;;;;5031777;28;20297;-55
2022/11/25 07:31:09;;;;;;;2.63;1.10;;;8.30;99.90;;;;;;5031410;28;20294;-56
2022/11/25 07:33:59;;;;;;;4.03;1.30;;;8.30;99.90;;;;;;5033234;28;20237;-55
2022/11/25 07:36:27;;;;;;;4.10;1.30;;;8.30;99.90;;;;;;5030249;28;20734;-57
2022/11/25 07:38:56;;;;;;;4.23;1.33;;;8.40;99.90;;;;;;5029454;28;20284;-56
2022/11/25 07:41:25;;;;;;;4.87;1.63;;;8.50;99.90;;;;;;5031747;28;20317;-56
2022/11/25 07:43:55;;;;;;;2.67;1.20;;;8.50;99.90;;;;;;5032919;28;20239;-56
2022/11/25 07:46:33;;;;;;;5.63;1.60;;;8.40;99.90;;;;;;5032322;28;20198;-56
2022/11/25 07:49:03;;;;;;;7.70;1.50;;;8.30;99.90;;;;;;5032426;28;20262;-55
2022/11/25 07:51:33;;;;;;;7.37;1.70;;;8.30;99.90;;;;;;5031610;28;20267;-56
2022/11/25 07:54:02;;;;;;;4.80;1.43;;;8.30;99.90;;;;;;5031194;28;20197;-57
2022/11/25 07:56:29;;;;;;;5.27;1.80;;;8.40;99.90;;;;;;5032860;28;20209;-56
2022/11/25 07:58:56;;;;;;;5.70;1.70;;;8.40;99.90;;;;;;5031984;28;20310;-56
2022/11/25 08:01:23;;;;;;;5.60;1.73;;;8.40;99.90;;;;;;5030825;28;20207;-59
2022/11/25 08:03:51;;;;;;;3.30;1.50;;;8.50;99.90;;;;;;5030048;28;20925;-56
2022/11/25 08:06:21;;;;;;;3.90;1.97;;;8.40;99.90;;;;;;5029138;28;20647;-60
2022/11/25 08:08:48;;;;;;;2.63;1.73;;;8.40;99.90;;;;;;5034444;28;20210;-58
2022/11/25 08:11:20;;;;;;;4.17;1.90;;;8.40;99.90;;;;;;5034477;28;20243;-56
2022/11/25 08:13:47;;;;;;;6.27;1.53;;;8.40;99.90;;;;;;5035118;28;20243;-56
2022/11/25 08:16:15;;;;;;;8.57;1.93;;;8.40;99.90;;;;;;5040107;28;20199;-57
2022/11/25 08:18:43;;;;;;;3.37;1.50;;;8.40;99.90;;;;;;5037701;28;20243;-56
2022/11/25 08:21:12;;;;;;;4.40;1.83;;;8.40;99.90;;;;;;5034286;28;20242;-56
2022/11/25 08:23:42;;;;;;;7.53;1.97;;;8.50;99.90;;;;;;5039288;28;20509;-56
2022/11/25 08:26:18;;;;;;;5.37;1.90;;;8.50;99.90;;;;;;5038386;28;20203;-55
2022/11/25 08:28:46;;;;;;;5.23;1.70;;;8.50;99.90;;;;;;5040739;28;20659;-56
2022/11/25 08:31:28;;;;;;;4.80;1.53;;;8.50;99.90;;;;;;5040469;28;20211;-56
2022/11/25 08:33:55;;;;;;;3.03;1.50;;;8.60;99.90;;;;;;5037146;28;20192;-56
2022/11/25 08:36:23;;;;;;;6.80;2.13;;;8.70;99.90;;;;;;5032404;28;20211;-56
2022/11/25 08:38:52;;;;;;;7.23;1.80;;;8.70;99.90;;;;;;5015744;28;20259;-55
2022/11/25 08:41:31;;;;;;;6.17;1.83;;;8.80;99.90;;;;;;5037188;28;20208;-56
2022/11/25 08:44:00;;;;;;;4.07;1.60;;;8.80;99.90;;;;;;5034709;28;20234;-56
2022/11/25 08:46:32;;;;;;;6.43;2.20;;;8.90;99.90;;;;;;5037495;28;20219;-56
2022/11/25 08:48:59;;;;;;;3.73;1.67;;;8.90;99.90;;;;;;5038285;28;20205;-55
2022/11/25 08:51:32;;;;;;;5.80;1.80;;;8.90;99.90;;;;;;5034319;28;20818;-56
2022/11/25 08:54:00;;;;;;;5.53;2.23;;;8.90;99.90;;;;;;5035946;28;20941;-56
2022/11/25 08:56:27;;;;;;;3.67;2.03;;;9.10;99.90;;;;;;5038684;28;20234;-56
2022/11/25 08:58:54;;;;;;;4.47;1.90;;;9.10;99.90;;;;;;5040971;28;20680;-56
2022/11/25 09:01:23;;;;;;;4.60;2.13;;;9.10;99.90;;;;;;5037875;28;20950;-56
2022/11/25 09:03:54;;;;;;;4.37;2.20;;;9.30;99.90;;;;;;5034475;28;20203;-56
2022/11/25 09:06:22;;;;;;;11.80;2.90;;;9.30;99.90;;;;;;5038844;28;20199;-56
2022/11/25 09:08:49;;;;;;;10.00;3.00;;;9.30;99.90;;;;;;5042763;28;20565;-56
2022/11/25 09:11:16;;;;;;;5.93;2.67;;;9.50;99.90;;;;;;5037969;28;20220;-56
2022/11/25 09:13:43;;;;;;;7.97;2.47;;;9.50;99.90;;;;;;5036584;28;20239;-57
2022/11/25 09:16:10;;;;;;;9.20;2.57;;;9.60;99.90;;;;;;5040207;28;20647;-56
2022/11/25 09:18:38;;;;;;;4.80;2.23;;;9.80;99.90;;;;;;5041849;28;20204;-56
2022/11/25 09:21:11;;;;;;;6.57;2.50;;;10.20;99.90;;;;;;5039662;28;20692;-56
2022/11/25 09:23:38;;;;;;;6.60;2.27;;;10.40;99.90;;;;;;5041341;28;20199;-56
2022/11/25 09:26:07;;;;;;;9.00;2.33;;;10.40;99.90;;;;;;5041909;28;20523;-56
2022/11/25 09:28:35;;;;;;;4.80;1.90;;;10.30;99.90;;;;;;5041361;28;20259;-56
2022/11/25 09:31:07;;;;;;;6.47;2.33;;;10.30;99.90;;;;;;5040489;28;20712;-61
2022/11/25 09:33:34;;;;;;;5.33;2.80;;;10.30;99.90;;;;;;5043048;28;20291;-56
2022/11/25 09:36:01;;;;;;;6.77;2.20;;;10.30;99.90;;;;;;5040257;28;20284;-56
2022/11/25 09:38:28;;;;;;;5.80;2.50;;;10.30;99.90;;;;;;5042527;28;20287;-57
2022/11/25 09:41:04;;;;;;;7.90;2.10;;;10.40;99.90;;;;;;5041874;28;20600;-56
2022/11/25 09:46:55;;;;;;;7.83;3.87;;;10.70;99.90;;;;;;5042317;28;20633;-56
2022/11/25 09:50:16;;;;;;;6.13;2.07;;;10.70;99.90;;;;;;5039999;28;20307;-56
2022/11/25 09:53:07;;;;;;;8.70;2.40;;;10.90;99.90;;;;;;5041763;28;20203;-55
2022/11/25 09:55:44;;;;;;;6.83;1.83;;;11.00;99.90;;;;;;5035740;28;20215;-56
2022/11/25 09:58:36;;;;;;;3.33;1.70;;;10.90;99.90;;;;;;5042480;28;20231;-55
2022/11/25 10:01:12;;;;;;;6.53;1.70;;;10.80;99.90;;;;;;5041094;28;20222;-55
2022/11/25 10:03:46;;;;;;;6.70;1.97;;;10.80;99.90;;;;;;5041642;28;20199;-55
2022/11/25 10:06:27;;;;;;;4.67;1.87;;;11.00;99.90;;;;;;5040786;28;20210;-56
2022/11/25 10:09:09;;;;;;;6.20;1.80;;;11.10;99.90;;;;;;5041526;28;20774;-56
2022/11/25 10:11:44;;;;;;;5.87;2.07;;;11.10;99.90;;;;;;5040265;28;20224;-56
2022/11/25 10:14:41;;;;;;;6.13;1.80;;;11.30;99.90;;;;;;5042477;28;20580;-56
2022/11/25 10:17:26;;;;;;;7.30;2.40;;;11.40;99.90;;;;;;5037905;28;20824;-56
2022/11/25 10:20:11;;;;;;;4.60;1.80;;;11.20;99.90;;;;;;5039651;28;20306;-54
2022/11/25 10:22:47;;;;;;;7.33;1.77;;;11.20;99.90;;;;;;5039928;28;20196;-57
2022/11/25 10:25:19;;;;;;;5.63;2.13;;;11.10;99.90;;;;;;5040842;28;20222;-57
2022/11/25 10:28:00;;;;;;;5.33;1.77;;;11.00;99.90;;;;;;5041138;28;20208;-55
2022/11/25 10:30:48;;;;;;;5.63;1.80;;;11.10;99.90;;;;;;5040254;28;20218;-58
2022/11/25 10:33:31;;;;;;;4.97;2.33;;;11.30;99.90;;;;;;5041255;28;20219;-55
2022/11/25 10:36:12;;;;;;;4.80;1.70;;;11.10;99.90;;;;;;5037473;28;20220;-55
2022/11/25 10:39:00;;;;;;;5.83;2.10;;;11.20;99.90;;;;;;5041899;28;20211;-55
2022/11/25 10:42:05;;;;;;;6.00;1.37;;;11.20;99.90;;;;;;5038083;28;21201;-57
2022/11/25 10:44:40;;;;;;;8.20;1.57;;;11.20;99.90;;;;;;5039034;28;20232;-55
2022/11/25 10:47:26;;;;;;;4.40;1.70;;;11.20;99.90;;;;;;5040078;28;20684;-55
2022/11/25 10:49:55;;;;;;;3.17;1.40;;;11.20;99.90;;;;;;5039413;28;20209;-55
2022/11/25 10:52:26;;;;;;;5.70;1.90;;;11.20;99.90;;;;;;5039371;28;20299;-55
2022/11/25 10:55:06;;;;;;;4.90;1.90;;;11.10;99.90;;;;;;5040411;28;20209;-55
2022/11/25 10:57:34;;;;;;;4.33;1.73;;;11.30;99.90;;;;;;5023969;28;20235;-55
2022/11/25 11:00:03;;;;;;;4.57;1.63;;;11.30;99.90;;;;;;5034707;28;20707;-56
2022/11/25 11:02:37;;;;;;;5.03;1.40;;;11.40;99.90;;;;;;5041403;28;20196;-54
2022/11/25 11:05:07;;;;;;;8.23;1.77;;;11.40;99.90;;;;;;5020227;28;20301;-55
2022/11/25 11:07:40;;;;;;;8.37;1.40;;;11.50;99.90;;;;;;5041441;28;20228;-56
2022/11/25 11:10:18;;;;;;;5.37;2.03;;;11.50;99.90;;;;;;5034938;28;20256;-55
2022/11/25 11:12:57;;;;;;;5.57;1.40;;;11.50;99.90;;;;;;5038026;28;20207;-55
2022/11/25 11:15:27;;;;;;;6.23;1.93;;;11.60;99.90;;;;;;5040353;28;20613;-55
2022/11/25 11:17:56;;;;;;;5.93;1.60;;;11.60;99.90;;;;;;5039349;28;20246;-61
2022/11/25 11:20:30;;;;;;;6.13;1.70;;;11.80;99.90;;;;;;5035025;28;20229;-55
2022/11/25 11:23:08;;;;;;;9.10;1.77;;;11.90;99.90;;;;;;5038965;28;20192;-57
2022/11/25 11:25:37;;;;;;;4.47;1.53;;;12.00;99.90;;;;;;5039713;28;20236;-56
2022/11/25 11:28:28;;;;;;;4.87;1.60;;;12.10;99.90;;;;;;5039162;28;20193;-57
2022/11/25 11:31:00;;;;;;;5.60;1.33;;;12.20;99.90;;;;;;5039839;28;20210;-56
2022/11/25 11:33:33;;;;;;;7.97;1.80;;;12.20;99.90;;;;;;5040076;28;20211;-56
2022/11/25 11:36:28;;;;;;;6.73;1.73;;;12.60;99.90;;;;;;5036791;28;20284;-60
2022/11/25 11:39:07;;;;;;;3.93;1.57;;;12.70;99.90;;;;;;5036246;28;20286;-55
2022/11/25 11:41:43;;;;;;;4.13;2.03;;;12.80;99.90;;;;;;5040091;28;20607;-56
2022/11/25 11:44:58;;;;;;;6.50;1.80;;;12.80;99.90;;;;;;5038547;28;20258;-56
2022/11/25 11:47:38;;;;;;;4.67;1.93;;;13.00;99.90;;;;;;5034632;28;20213;-56
2022/11/25 11:50:34;;;;;;;3.73;1.60;;;13.00;99.90;;;;;;5038752;28;20219;-56
2022/11/25 11:53:25;;;;;;;3.37;1.60;;;13.10;99.90;;;;;;5038166;28;20584;-56
2022/11/25 11:56:04;;;;;;;7.90;3.00;;;13.10;99.90;;;;;;5037507;28;20235;-56
2022/11/25 11:59:28;;;;;;;9.73;2.60;;;13.00;99.90;;;;;;5039543;28;20216;-55
2022/11/25 12:02:20;;;;;;;8.03;2.20;;;12.80;99.90;;;;;;5037056;28;20622;-56
2022/11/25 12:05:04;;;;;;;6.27;1.57;;;12.60;99.90;;;;;;5039078;28;20204;-56
2022/11/25 12:07:40;;;;;;;5.70;1.87;;;12.70;99.90;;;;;;5038689;28;20645;-57
2022/11/25 12:10:13;;;;;;;8.70;1.70;;;12.60;99.90;;;;;;5021496;28;20229;-58
2022/11/25 12:13:01;;;;;;;8.17;2.03;;;12.50;99.90;;;;;;5036814;28;20739;-56
2022/11/25 12:16:03;;;;;;;5.07;1.90;;;12.60;99.90;;;;;;5038235;28;20258;-55
2022/11/25 12:18:40;;;;;;;5.07;1.67;;;12.50;99.90;;;;;;5037224;28;20231;-56
2022/11/25 12:21:18;;;;;;;5.43;1.70;;;12.30;99.90;;;;;;5035472;28;20645;-55
2022/11/25 12:24:03;;;;;;;5.50;1.87;;;12.30;99.90;;;;;;5038647;28;20347;-56
2022/11/25 12:26:47;;;;;;;11.67;2.03;;;12.40;99.90;;;;;;5038398;28;20291;-57
2022/11/25 12:29:43;;;;;;;4.90;2.10;;;12.50;99.90;;;;;;5037897;28;20650;-57
2022/11/25 12:32:41;;;;;;;3.13;1.80;;;12.50;99.90;;;;;;5038536;28;20570;-55
2022/11/25 12:35:10;;;;;;;8.23;1.63;;;12.80;99.90;;;;;;5034467;28;20277;-56
2022/11/25 12:38:10;;;;;;;7.93;2.47;;;12.90;99.90;;;;;;5039212;28;20206;-56
2022/11/25 12:40:48;;;;;;;5.20;1.60;;;12.80;99.90;;;;;;5015223;28;20236;-56
2022/11/25 12:43:30;;;;;;;7.40;1.73;;;12.90;99.90;;;;;;5038709;28;20296;-56
2022/11/25 12:46:12;;;;;;;6.37;2.03;;;13.10;99.90;;;;;;5037600;28;20292;-57
2022/11/25 12:48:41;;;;;;;8.97;2.40;;;13.30;99.90;;;;;;5038276;28;20232;-56
2022/11/25 12:51:41;;;;;;;6.57;1.97;;;12.90;99.90;;;;;;5036537;28;20221;-57
2022/11/25 12:54:38;;;;;;;6.23;1.67;;;12.90;99.90;;;;;;5038895;28;20276;-61
2022/11/25 12:57:39;;;;;;;7.13;2.00;;;13.10;99.90;;;;;;5034261;28;20200;-57
2022/11/25 13:00:17;;;;;;;5.60;2.17;;;12.80;99.90;;;;;;5038014;28;20703;-58
2022/11/25 13:03:19;;;;;;;6.43;1.97;;;12.60;99.90;;;;;;5038919;28;20214;-57
2022/11/25 13:05:48;;;;;;;6.87;2.10;;;12.40;99.90;;;;;;5034456;28;20199;-60
2022/11/25 13:08:34;;;;;;;9.87;2.20;;;12.30;99.90;;;;;;5031899;28;20197;-58
2022/11/25 13:11:27;;;;;;;8.40;1.97;;;12.50;99.90;;;;;;5036603;28;20278;-63
2022/11/25 13:13:54;;;;;;;11.50;2.37;;;12.50;99.90;;;;;;5039084;28;20244;-56
2022/11/25 13:16:22;;;;;;;8.77;2.00;;;12.50;99.90;;;;;;5028717;28;20951;-56
2022/11/25 13:18:51;;;;;;;7.77;2.00;;;12.40;99.90;;;;;;5025164;28;20259;-56
2022/11/25 13:21:18;;;;;;;6.57;2.03;;;12.30;99.90;;;;;;5024313;28;20303;-57
2022/11/25 13:23:51;;;;;;;7.93;2.57;;;12.30;99.90;;;;;;5020370;28;20213;-57
2022/11/25 13:26:31;;;;;;;11.07;2.20;;;12.20;99.90;;;;;;5018901;28;21664;-57
2022/11/25 13:29:00;;;;;;;17.67;2.77;;;12.20;99.90;;;;;;5020072;28;20303;-58
2022/11/25 13:31:33;;;;;;;10.67;2.50;;;12.30;99.90;;;;;;5029042;28;20219;-58